Tuesday, January 23, 2018, 7:19 AM EST
Back to Local

KCRW, Yeager Airport

Location: Charleston, WV, United States Lat: 38.367
Local Time: 7:19 AM EST (12:19 GMT) Lon: -81.6
Time Zone: US/Eastern Elev: 980 ft

Show me the last for .
Show Decoded

2018-01-23 06:54 METAR KCRW 231154Z 29010G16KT 10SM FEW030 SCT070 09/06 A2971 RMK AO2 SLP059
                 60011 70014 T00940056 10172 20094 53019 $ =
2018-01-23 05:54 METAR KCRW 231054Z 26005KT 10SM FEW037 SCT049 11/07 A2969 RMK AO2 RAE06 SLP051
                 P0000 T01060067 $ =
2018-01-23 04:54 METAR KCRW 230954Z 25009KT 10SM -RA OVC039 11/08 A2967 RMK AO2 RAB06E26B45
                 SLP044 P0001 T01110078 $ =
2018-01-23 03:54 METAR KCRW 230854Z 29006KT 10SM BKN032 BKN043 OVC055 12/10 A2965 RMK AO2 RAE43
                 SLP037 P0005 60010 T01170100 53008 $ =
2018-01-23 02:54 METAR KCRW 230754Z 26007G18KT 6SM RA BR FEW040 BKN050 OVC060 13/11 A2966 RMK AO2
                 PK WND 23030/0724 RAB22 SLP037 P0005 T01280106 $ =
2018-01-23 01:54 METAR KCRW 230654Z 20011KT 10SM FEW050 SCT075 17/09 A2962 RMK AO2 PK WND
                 20026/0630 SLP025 T01670089 $ =
2018-01-23 00:54 METAR KCRW 230554Z 19017G34KT 10SM FEW020 SCT130 17/08 A2963 RMK AO2 PK WND
                 19034/0552 SLP027 60002 T01720083 10172 20133 56027 $ =
2018-01-22 23:54 METAR KCRW 230454Z 17010G19KT 10SM FEW035 17/08 A2964 RMK AO2 SLP032 LTG DSNT
                 W-NW T01670083 402000089 $ =
2018-01-22 22:54 METAR KCRW 230354Z 16012G18KT 10SM CLR 16/08 A2968 RMK AO2 SLP045 T01610083 $ =
2018-01-22 21:54 METAR KCRW 230254Z 16007KT 10SM CLR 14/07 A2971 RMK AO2 SLP059 60002 T01440072
                 56032 $ =
2018-01-22 20:54 METAR KCRW 230154Z 12007KT 10SM SCT075 15/07 A2974 RMK AO2 RAE14 SLP067 P0001
                 T01500072 =
2018-01-22 19:54 METAR KCRW 230054Z 15009KT 10SM -RA FEW035 SCT060 OVC080 14/09 A2977 RMK AO2
                 RAE2359B32 SLP081 P0001 T01440089 =
2018-01-22 18:54 METAR KCRW 222354Z 13003KT 10SM -RA FEW045 OVC080 16/07 A2981 RMK AO2 SLP092
                 P0001 60001 T01610072 10200 20161 58019 =
2018-01-22 17:54 METAR KCRW 222254Z 19008KT 10SM -RA SCT045 OVC075 17/07 A2984 RMK AO2 RAB36
                 SLP102 P0000 T01670072 =
2018-01-22 16:54 METAR KCRW 222154Z 19007KT 10SM BKN070 18/05 A2985 RMK AO2 SLP105 T01830050 =
2018-01-22 15:54 METAR KCRW 222054Z COR 22011KT 10SM BKN070 BKN110 OVC200 19/04 A2987 RMK AO2
                 SLP109 T01940044 55013 =
2018-01-22 14:54 METAR KCRW 221954Z 21009G19KT 10SM FEW120 OVC200 20/04 A2986 RMK AO2 SLP108
                 T02000044 =
2018-01-22 13:54 METAR KCRW 221854Z 17007KT 10SM FEW120 OVC200 20/04 A2987 RMK AO2 SLP110
                 T02000044 =
2018-01-22 12:54 METAR KCRW 221754Z 19011KT 10SM FEW100 BKN200 20/06 A2991 RMK AO2 SLP123
                 T02000056 10200 20089 58032 =
2018-01-22 11:54 METAR KCRW 221654Z 17007KT 10SM FEW100 BKN200 19/07 A2995 RMK AO2 SLP139
                 T01890067 =
2018-01-22 10:54 METAR KCRW 221554Z 16007KT 10SM FEW070 SCT100 BKN200 16/07 A2997 RMK AO2 SLP147
                 T01560067 =
2018-01-22 09:54 METAR KCRW 221454Z 00000KT 10SM FEW070 SCT100 OVC200 11/07 A3000 RMK AO2 SLP159
                 T01060072 55004 =
2018-01-22 08:54 METAR KCRW 221354Z 00000KT 10SM SCT070 BKN100 OVC200 09/07 A3000 RMK AO2 SLP158
                 T00940067 =
2018-01-22 07:54 METAR KCRW 221254Z 00000KT 10SM BKN070 OVC100 09/07 A3001 RMK AO2 SLP162 OCNL
                 BINOVC T00890067 =

Support USWX by starting your Amazon purchase here.